Time;durP1;ratioP1;P1;durP2;ratioP2;P2;SDS_P1;SDS_P2;PMS_P1;PMS_P2;Temp;Humidity;BMP_temperature;BMP_pressure;BME280_temperature;BME280_humidity;BME280_pressure;Samples;Min_cycle;Max_cycle;Signal;HPM_P1;HPM_P2
2022/09/08 00:01:59;;;;;;;15.48;6.07;;;;;;;20.05;69.97;100837.22;4969457;28;20031;-61
2022/09/08 00:04:25;;;;;;;14.10;6.25;;;;;;;20.03;70.56;100837.22;4975585;28;20073;-61
2022/09/08 00:06:51;;;;;;;10.80;5.80;;;;;;;20.04;70.25;100844.25;4975493;28;20402;-61
2022/09/08 00:09:16;;;;;;;12.10;6.47;;;;;;;19.99;70.44;100835.53;4977042;28;20034;-61
2022/09/08 00:11:42;;;;;;;15.38;6.43;;;;;;;19.98;69.38;100847.84;4971564;28;20038;-61
2022/09/08 00:14:08;;;;;;;16.48;6.95;;;;;;;19.95;69.99;100853.19;4979096;28;20169;-61
2022/09/08 00:16:37;;;;;;;14.90;6.38;;;;;;;19.94;69.67;100866.44;4967862;28;20026;-62
2022/09/08 00:19:03;;;;;;;14.35;6.50;;;;;;;19.90;69.59;100857.69;4974572;28;20482;-62
2022/09/08 00:21:28;;;;;;;17.27;6.65;;;;;;;19.83;71.18;100848.09;4970041;28;20080;-62
2022/09/08 00:23:54;;;;;;;10.52;6.32;;;;;;;19.81;70.75;100839.31;4971092;28;20088;-61
2022/09/08 00:26:20;;;;;;;21.08;7.32;;;;;;;19.75;72.08;100834.09;4973736;28;20031;-62
2022/09/08 00:28:46;;;;;;;17.05;6.47;;;;;;;19.67;73.48;100838.59;4975755;28;20038;-61
2022/09/08 00:31:12;;;;;;;17.00;6.63;;;;;;;19.64;74.01;100834.25;4981353;28;20120;-62
2022/09/08 00:33:37;;;;;;;16.45;6.68;;;;;;;19.58;74.93;100827.28;4970677;28;20081;-62
2022/09/08 00:36:03;;;;;;;16.17;6.80;;;;;;;19.54;75.61;100820.28;4971710;28;20042;-62
2022/09/08 00:38:30;;;;;;;14.82;6.90;;;;;;;19.59;75.17;100822.84;4975240;28;20555;-66
2022/09/08 00:40:57;;;;;;;16.02;6.72;;;;;;;19.57;75.19;100829.94;4972838;28;20506;-66
2022/09/08 00:43:38;;;;;;;14.90;6.55;;;;;;;19.57;74.42;100820.25;4976631;28;20038;-66
2022/09/08 00:46:20;;;;;;;15.32;6.70;;;;;;;19.59;73.64;100804.34;4968221;28;20026;-66
2022/09/08 00:49:11;;;;;;;14.80;6.90;;;;;;;19.58;73.85;100799.94;4977599;28;20518;-66
2022/09/08 00:51:41;;;;;;;17.60;6.97;;;;;;;19.56;74.82;100813.19;4969941;28;20109;-66
2022/09/08 00:54:07;;;;;;;18.00;7.07;;;;;;;19.53;75.15;100813.25;4969770;28;20070;-66
2022/09/08 00:56:33;;;;;;;16.77;7.00;;;;;;;19.55;75.11;100811.47;4972797;28;20066;-66
2022/09/08 00:59:01;;;;;;;18.60;7.55;;;;;;;19.50;76.36;100801.84;4978797;28;20037;-66
2022/09/08 01:01:26;;;;;;;18.40;7.03;;;;;;;19.52;75.81;100792.97;4971082;28;20086;-66
2022/09/08 01:03:52;;;;;;;16.83;7.22;;;;;;;19.48;76.02;100786.03;4970979;28;20117;-66
2022/09/08 01:12:46;;;;;;;15.80;7.50;;;;;;;19.37;75.78;100780.00;4970878;28;20113;-65
2022/09/08 01:15:18;;;;;;;17.67;7.18;;;;;;;19.35;75.85;100781.78;4971061;28;20481;-65
2022/09/08 01:17:47;;;;;;;17.15;7.40;;;;;;;19.34;76.31;100786.19;4968131;28;20034;-60
2022/09/08 01:20:13;;;;;;;18.00;7.15;;;;;;;19.34;76.12;100782.69;4971305;28;20049;-61
2022/09/08 01:23:15;;;;;;;16.45;7.75;;;;;;;19.36;75.06;100773.81;4982610;28;20401;-60
2022/09/08 01:26:11;;;;;;;16.70;8.00;;;;;;;19.33;75.25;100770.38;4968221;28;20030;-60
2022/09/08 01:28:45;;;;;;;15.57;7.68;;;;;;;19.29;76.51;100767.78;4978297;28;20034;-60
2022/09/08 01:31:12;;;;;;;16.27;7.70;;;;;;;19.28;77.06;100760.75;4966991;28;20031;-60
2022/09/08 01:33:38;;;;;;;17.52;7.95;;;;;;;19.25;76.64;100750.22;4965191;28;20069;-60
2022/09/08 01:36:09;;;;;;;19.20;8.25;;;;;;;19.20;77.73;100746.75;4968646;28;20031;-61
2022/09/08 01:38:34;;;;;;;15.98;8.43;;;;;;;19.20;75.96;100765.25;4980026;28;20030;-61
2022/09/08 01:40:59;;;;;;;16.05;8.52;;;;;;;19.17;76.46;100767.94;4976994;28;20081;-61
2022/09/08 01:43:24;;;;;;;20.58;9.05;;;;;;;19.11;77.65;100757.44;4982602;28;20375;-61
2022/09/08 01:45:50;;;;;;;16.50;8.85;;;;;;;19.09;77.65;100764.53;4972653;28;20394;-61
2022/09/08 01:48:15;;;;;;;21.83;8.88;;;;;;;19.08;76.91;100757.50;4974640;28;20035;-64
2022/09/08 01:50:40;;;;;;;27.05;9.32;;;;;;;19.03;78.35;100733.78;4967630;28;20490;-64
2022/09/08 01:53:06;;;;;;;22.70;8.93;;;;;;;19.05;77.57;100731.13;4972412;28;20461;-64
2022/09/08 01:55:31;;;;;;;20.35;8.40;;;;;;;19.02;77.18;100739.09;4978756;28;20674;-65
2022/09/08 01:57:56;;;;;;;15.88;7.25;;;;;;;18.98;76.47;100751.44;4969461;28;20470;-65
2022/09/08 02:00:22;;;;;;;18.33;7.85;;;;;;;18.97;77.39;100738.28;4970005;28;20031;-65
2022/09/08 02:02:47;;;;;;;17.52;8.32;;;;;;;18.95;77.50;100730.38;4973854;28;21388;-65
2022/09/08 02:05:13;;;;;;;17.58;8.13;;;;;;;18.92;77.37;100730.41;4971066;28;20049;-65
2022/09/08 02:07:38;;;;;;;20.00;8.32;;;;;;;18.92;77.12;100727.78;4969139;28;20045;-65
2022/09/08 02:10:05;;;;;;;23.48;8.60;;;;;;;18.88;77.32;100718.13;4968547;28;20109;-65
2022/09/08 02:12:30;;;;;;;21.45;8.15;;;;;;;18.88;77.81;100710.22;4984674;28;20037;-65
2022/09/08 02:14:56;;;;;;;19.02;8.50;;;;;;;18.89;77.01;100704.91;4945320;28;20397;-65
2022/09/08 02:17:21;;;;;;;22.75;9.23;;;;;;;18.90;76.93;100697.84;4969165;28;20035;-66
2022/09/08 02:19:47;;;;;;;21.08;8.95;;;;;;;18.90;77.23;100700.50;4969841;28;20030;-65
2022/09/08 02:22:12;;;;;;;24.30;10.32;;;;;;;18.89;77.79;100693.50;4973180;28;20139;-66
2022/09/08 02:24:37;;;;;;;22.83;10.30;;;;;;;18.88;78.01;100697.88;4982865;28;20062;-65
2022/09/08 02:27:03;;;;;;;22.55;9.82;;;;;;;18.90;77.28;100696.13;4966995;28;20137;-66
2022/09/08 02:29:28;;;;;;;21.48;10.10;;;;;;;18.91;77.87;100689.91;4972937;28;20551;-65
2022/09/08 02:31:54;;;;;;;27.02;11.13;;;;;;;18.87;78.28;100696.16;4967119;28;20502;-65
2022/09/08 02:34:19;;;;;;;21.42;10.07;;;;;;;18.88;77.50;100699.66;4976533;28;20478;-65
2022/09/08 02:36:45;;;;;;;20.30;9.25;;;;;;;18.87;78.16;100704.06;4982767;28;20052;-65
2022/09/08 02:39:16;;;;;;;20.77;9.95;;;;;;;18.87;78.09;100697.91;4972678;28;20022;-67
2022/09/08 02:41:41;;;;;;;22.95;10.93;;;;;;;18.87;77.66;100706.72;4970174;28;20101;-65
2022/09/08 02:44:08;;;;;;;21.08;10.35;;;;;;;18.83;78.62;100701.44;4969103;28;20498;-65
2022/09/08 02:46:33;;;;;;;18.42;10.20;;;;;;;18.86;77.80;100696.16;4960942;28;20022;-65
2022/09/08 02:48:59;;;;;;;21.23;9.75;;;;;;;18.85;77.70;100697.91;4975628;28;20035;-65
2022/09/08 02:51:24;;;;;;;22.27;10.85;;;;;;;18.78;79.10;100704.16;4977430;28;20088;-65
2022/09/08 02:53:54;;;;;;;25.40;10.27;;;;;;;18.79;78.10;100711.19;4967335;28;20054;-65
2022/09/08 02:56:20;;;;;;;19.20;10.02;;;;;;;18.79;78.26;100699.75;4976205;28;20518;-65
2022/09/08 02:58:45;;;;;;;23.60;10.38;;;;;;;18.80;78.25;100705.03;4983244;28;20153;-65
2022/09/08 03:01:11;;;;;;;21.83;10.10;;;;;;;18.79;78.99;100697.97;4962592;28;20037;-65
2022/09/08 03:03:36;;;;;;;24.73;10.50;;;;;;;18.76;78.64;100696.25;4970346;28;20503;-65
2022/09/08 03:06:02;;;;;;;23.42;10.05;;;;;;;18.77;78.78;100702.41;4968188;28;20022;-65
2022/09/08 03:08:27;;;;;;;23.52;10.30;;;;;;;18.73;79.26;100698.06;4974302;28;20057;-65
2022/09/08 03:10:53;;;;;;;22.13;11.00;;;;;;;18.72;78.85;100698.94;4968008;28;20034;-65
2022/09/08 03:13:18;;;;;;;24.60;10.02;;;;;;;18.72;78.50;100709.50;4971216;28;20486;-65
2022/09/08 03:15:44;;;;;;;21.02;9.43;;;;;;;18.70;78.47;100708.66;4976261;28;20477;-65
2022/09/08 03:18:10;;;;;;;21.30;8.77;;;;;;;18.66;78.78;100713.09;4959222;28;20038;-61
2022/09/08 03:20:37;;;;;;;21.67;8.75;;;;;;;18.65;78.61;100713.13;4971776;28;20027;-60
2022/09/08 03:23:03;;;;;;;19.48;8.35;;;;;;;18.64;77.64;100708.72;4971748;28;20034;-61
2022/09/08 03:25:29;;;;;;;20.80;7.78;;;;;;;18.62;77.99;100699.97;4971559;28;20101;-61
2022/09/08 03:27:55;;;;;;;20.42;8.65;;;;;;;18.60;78.85;100698.19;4963108;28;20426;-61
2022/09/08 03:30:20;;;;;;;20.77;7.53;;;;;;;18.61;78.32;100704.38;4964983;28;20064;-61
2022/09/08 03:32:46;;;;;;;18.52;7.97;;;;;;;18.58;78.54;100700.00;4967140;28;20023;-60
2022/09/08 03:35:14;;;;;;;18.73;8.50;;;;;;;18.58;78.56;100700.00;4974950;28;20089;-61
2022/09/08 03:37:40;;;;;;;23.10;8.43;;;;;;;18.59;78.49;100699.09;4971838;28;20029;-61
2022/09/08 03:40:08;;;;;;;21.38;8.35;;;;;;;18.57;77.91;100713.22;4981393;28;20030;-61
2022/09/08 03:42:35;;;;;;;16.63;7.97;;;;;;;18.56;78.08;100725.50;4972427;28;20471;-62
2022/09/08 03:45:03;;;;;;;22.02;8.05;;;;;;;18.44;78.32;100744.13;4969433;28;20113;-61
2022/09/08 03:47:28;;;;;;;23.08;8.70;;;;;;;18.36;78.83;100743.34;4971721;28;20128;-61
2022/09/08 03:49:53;;;;;;;16.55;8.48;;;;;;;18.30;78.80;100727.56;4972764;28;20510;-61
2022/09/08 03:52:18;;;;;;;25.13;8.45;;;;;;;18.28;79.26;100705.59;4966468;28;20031;-61
2022/09/08 03:54:47;;;;;;;21.15;7.85;;;;;;;18.24;78.71;100695.09;4973803;28;20513;-62
2022/09/08 03:57:12;;;;;;;19.33;7.57;;;;;;;18.24;78.51;100702.13;4974320;28;20045;-61
2022/09/08 03:59:38;;;;;;;20.90;7.45;;;;;;;18.15;78.66;100700.47;4973028;28;20026;-61
2022/09/08 04:02:04;;;;;;;20.30;7.78;;;;;;;18.11;78.37;100688.19;4971726;28;20249;-61
2022/09/08 04:04:30;;;;;;;16.65;7.55;;;;;;;18.03;78.52;100685.66;4971571;28;20487;-61
2022/09/08 04:06:56;;;;;;;22.40;6.75;;;;;;;17.94;78.71;100684.84;4971305;28;20076;-61
2022/09/08 04:09:21;;;;;;;17.80;6.53;;;;;;;17.89;77.95;100683.09;4972087;28;20030;-61
2022/09/08 04:11:48;;;;;;;14.00;6.28;;;;;;;17.84;78.66;100678.75;4970050;28;20042;-61
2022/09/08 04:14:13;;;;;;;17.98;6.32;;;;;;;17.75;79.53;100682.34;4971272;28;20174;-61
2022/09/08 04:16:40;;;;;;;15.93;6.45;;;;;;;17.80;79.55;100693.72;4981335;28;20557;-61
2022/09/08 04:19:06;;;;;;;14.88;6.35;;;;;;;17.78;79.10;100690.22;4980954;28;20162;-61
2022/09/08 04:21:31;;;;;;;14.82;6.78;;;;;;;17.75;79.02;100695.53;4966866;28;20076;-61
2022/09/08 04:23:59;;;;;;;14.90;6.72;;;;;;;17.73;80.00;100700.81;4968253;28;20023;-61
2022/09/08 04:26:29;;;;;;;18.70;7.18;;;;;;;17.73;79.75;100707.84;4972080;28;20124;-65
2022/09/08 04:28:56;;;;;;;20.90;7.40;;;;;;;17.72;80.05;100704.31;4968213;28;20042;-65
2022/09/08 04:31:21;;;;;;;21.90;7.82;;;;;;;17.75;80.42;100703.44;4967726;28;20031;-65
2022/09/08 04:34:10;;;;;;;21.58;7.50;;;;;;;17.76;79.29;100701.69;4969566;28;20023;-65
2022/09/08 04:36:43;;;;;;;19.50;7.38;;;;;;;17.78;79.30;100711.31;4971321;28;20019;-65
2022/09/08 04:42:04;;;;;;;17.58;7.55;;;;;;;17.80;80.08;100720.09;4964665;28;20116;-65
2022/09/08 04:44:43;;;;;;;18.45;6.90;;;;;;;17.77;80.00;100712.22;4965232;28;20121;-65
2022/09/08 06:11:35;;;;;;;14.55;6.55;;;;;;;17.71;81.40;100728.06;4943114;28;20050;-61
2022/09/08 06:14:33;;;;;;;14.02;10.23;;;;;;;17.67;82.38;100723.69;4964044;28;20561;-61
2022/09/08 06:16:59;;;;;;;14.13;6.97;;;;;;;17.69;82.11;100725.44;4964336;28;20112;-61
2022/09/08 06:19:24;;;;;;;14.95;7.00;;;;;;;17.70;82.02;100724.56;4966509;28;20469;-61
2022/09/08 06:21:49;;;;;;;11.60;6.45;;;;;;;17.72;82.14;100727.19;4964920;28;20023;-61
2022/09/08 06:24:15;;;;;;;11.80;6.60;;;;;;;17.72;82.38;100743.00;4945784;28;20636;-61
2022/09/08 06:27:01;;;;;;;12.57;6.88;;;;;;;17.72;81.63;100727.19;4961855;28;20031;-61
2022/09/08 06:29:54;;;;;;;12.65;6.47;;;;;;;17.71;81.63;100728.06;4962329;28;20093;-61
2022/09/08 06:32:37;;;;;;;13.52;6.75;;;;;;;17.70;81.91;100723.69;4963284;28;20042;-61
2022/09/08 06:35:10;;;;;;;13.25;7.05;;;;;;;17.64;83.32;100732.50;4962696;28;20058;-63
2022/09/08 06:37:39;;;;;;;15.05;6.85;;;;;;;17.63;83.08;100729.91;4962274;28;20066;-61
2022/09/08 06:40:10;;;;;;;;;;;;;;;17.68;80.74;100731.63;4960898;28;20038;-61
2022/09/08 06:42:49;;;;;;;12.50;6.60;;;;;;;17.64;82.53;100735.16;4962673;28;20777;-61
2022/09/08 06:45:22;;;;;;;13.80;7.05;;;;;;;17.63;83.62;100738.66;4964796;28;20042;-61
2022/09/08 06:47:56;;;;;;;12.35;6.90;;;;;;;17.61;84.20;100745.72;4967687;28;20457;-61
2022/09/08 06:50:22;;;;;;;13.68;7.00;;;;;;;17.61;84.59;100742.19;4971003;28;20065;-61
2022/09/08 06:52:51;;;;;;;10.93;7.18;;;;;;;17.59;84.76;100747.47;4963667;28;20031;-61
2022/09/08 06:55:47;;;;;;;12.18;6.60;;;;;;;17.64;83.09;100744.78;4970963;28;20490;-61
2022/09/08 06:58:22;;;;;;;15.07;7.00;;;;;;;17.64;84.60;100739.53;4965222;28;20039;-61
2022/09/08 07:00:58;;;;;;;14.40;7.43;;;;;;;17.65;84.61;100749.19;4964766;28;20034;-60
2022/09/08 07:04:00;;;;;;;12.23;7.65;;;;;;;17.61;83.97;100743.09;4967270;28;20041;-60
2022/09/08 07:06:31;;;;;;;14.55;7.88;;;;;;;17.58;84.34;100745.72;4969813;28;20027;-64
2022/09/08 07:09:03;;;;;;;14.55;8.27;;;;;;;17.56;85.44;100744.84;4969774;28;20026;-64
2022/09/08 07:11:37;;;;;;;13.35;7.88;;;;;;;17.54;85.27;100744.00;4975188;28;20063;-65
2022/09/08 07:14:33;;;;;;;16.42;9.18;;;;;;;17.53;84.66;100743.13;4962340;28;20594;-64
2022/09/08 07:17:23;;;;;;;16.83;8.60;;;;;;;17.53;84.29;100745.75;4974631;28;20110;-64
2022/09/08 07:19:56;;;;;;;15.85;9.25;;;;;;;17.52;85.91;100745.75;4978589;28;20058;-63
2022/09/08 07:22:40;;;;;;;17.00;8.55;;;;;;;17.52;84.38;100751.94;4986227;28;20030;-64
2022/09/08 07:25:17;;;;;;;17.65;9.15;;;;;;;17.53;84.89;100745.75;4958127;28;20400;-63
2022/09/08 07:27:45;;;;;;;16.27;8.63;;;;;;;17.55;84.54;100746.63;4969841;28;20591;-64
2022/09/08 07:30:17;;;;;;;14.75;8.52;;;;;;;17.56;85.09;100750.13;4970298;28;20038;-64
2022/09/08 07:32:47;;;;;;;13.95;8.50;;;;;;;17.54;85.02;100755.41;4968643;28;20034;-64
2022/09/08 07:35:23;;;;;;;17.42;9.07;;;;;;;17.51;85.84;100750.16;4969167;28;20026;-64
2022/09/08 07:37:51;;;;;;;16.20;8.63;;;;;;;17.55;86.03;100748.38;4979575;28;20030;-64
2022/09/08 07:40:27;;;;;;;16.17;9.50;;;;;;;17.56;85.76;100745.72;4987060;28;20092;-64
2022/09/08 07:42:57;;;;;;;17.45;9.38;;;;;;;17.57;85.34;100746.63;4976727;28;20285;-64
2022/09/08 07:45:35;;;;;;;17.17;9.45;;;;;;;17.60;85.52;100750.97;4975324;28;20299;-63
2022/09/08 07:48:17;;;;;;;17.35;10.25;;;;;;;17.62;86.64;100747.44;4963267;28;20700;-64
2022/09/08 07:50:54;;;;;;;17.75;10.35;;;;;;;17.62;87.25;100744.81;4966822;28;20038;-64
2022/09/08 07:53:35;;;;;;;15.57;10.35;;;;;;;17.68;85.38;100747.41;4967120;28;20501;-64
2022/09/08 07:56:31;;;;;;;17.58;10.48;;;;;;;17.77;88.15;100748.22;4966351;28;21690;-64
2022/09/08 07:58:59;;;;;;;17.23;10.43;;;;;;;17.79;86.65;100742.06;4966389;28;20043;-64
2022/09/08 08:01:36;;;;;;;16.70;10.15;;;;;;;17.80;86.80;100746.44;4965005;28;20106;-63
2022/09/08 08:04:31;;;;;;;14.07;10.20;;;;;;;17.83;86.55;100750.78;4966073;28;20030;-63
2022/09/08 08:07:00;;;;;;;16.73;11.13;;;;;;;17.92;87.97;100757.81;4957369;28;20109;-60
2022/09/08 08:09:32;;;;;;;16.13;10.25;;;;;;;17.99;87.42;100754.25;4957719;28;20031;-61
2022/09/08 08:12:23;;;;;;;15.57;9.57;;;;;;;17.97;84.08;100758.63;4960641;28;20109;-60
2022/09/08 08:15:03;;;;;;;12.60;8.18;;;;;;;17.89;82.26;100759.53;4960714;28;20105;-60
2022/09/08 08:17:36;;;;;;;13.27;8.48;;;;;;;17.86;82.55;100756.94;4957255;28;20694;-60
2022/09/08 08:20:35;;;;;;;13.20;8.82;;;;;;;17.82;81.61;100771.03;4961808;28;20031;-60
2022/09/08 08:23:19;;;;;;;13.48;8.82;;;;;;;17.79;81.88;100771.03;4963007;28;20062;-60
2022/09/08 08:26:22;;;;;;;13.35;8.70;;;;;;;17.76;81.96;100773.72;4941439;28;20034;-60
2022/09/08 08:28:59;;;;;;;11.70;8.02;;;;;;;17.77;82.62;100767.56;4962979;28;20041;-60
2022/09/08 08:31:45;;;;;;;11.40;7.72;;;;;;;17.81;82.11;100769.25;4968623;28;20469;-61
2022/09/08 08:34:36;;;;;;;11.63;7.65;;;;;;;17.82;81.42;100762.25;4963618;28;20023;-60
2022/09/08 08:37:04;;;;;;;10.80;7.13;;;;;;;17.88;82.76;100759.56;4964777;28;20031;-64
2022/09/08 08:39:33;;;;;;;10.70;7.20;;;;;;;17.92;82.01;100760.47;4963525;28;20038;-64
2022/09/08 08:41:58;;;;;;;10.32;7.00;;;;;;;17.94;80.91;100758.66;4946117;28;20479;-64
2022/09/08 08:44:47;;;;;;;10.07;6.07;;;;;;;17.94;80.12;100758.66;4965470;28;20038;-64
2022/09/08 08:47:41;;;;;;;8.30;5.57;;;;;;;17.95;79.75;100763.06;4963808;28;20529;-64
2022/09/08 08:50:18;;;;;;;7.40;5.60;;;;;;;17.98;79.56;100760.41;4965240;28;20557;-64
2022/09/08 08:53:02;;;;;;;10.38;6.00;;;;;;;18.03;80.46;100762.09;4967755;28;20037;-64
2022/09/08 08:55:36;;;;;;;9.27;5.90;;;;;;;18.06;79.39;100762.06;4965437;28;20229;-64
2022/09/08 08:58:19;;;;;;;10.20;5.85;;;;;;;18.14;80.10;100764.63;4963783;28;20027;-64
2022/09/08 09:01:23;;;;;;;10.05;6.20;;;;;;;18.23;79.77;100755.75;4969830;28;20034;-64
2022/09/08 09:04:13;;;;;;;10.82;6.65;;;;;;;18.30;80.83;100757.44;4949601;28;20102;-64
2022/09/08 09:07:27;;;;;;;10.57;6.57;;;;;;;18.36;79.45;100762.66;4966854;28;20042;-61
2022/09/08 09:10:10;;;;;;;8.55;6.05;;;;;;;18.41;80.46;100768.78;4974589;28;20088;-60
2022/09/08 09:12:55;;;;;;;10.20;6.50;;;;;;;18.48;79.45;100761.69;4937694;28;20055;-60
2022/09/08 09:15:26;;;;;;;9.48;6.07;;;;;;;18.51;79.53;100761.66;4925776;29;20035;-60
2022/09/08 09:18:13;;;;;;;8.48;6.00;;;;;;;18.57;80.11;100751.03;4925977;29;20039;-60
2022/09/08 09:20:41;;;;;;;8.48;4.53;;;;;;;18.60;77.82;100758.03;4931150;29;20050;-60
2022/09/08 09:23:22;;;;;;;7.45;4.22;;;;;;;18.64;78.51;100761.50;4939299;29;20031;-59
2022/09/08 09:26:18;;;;;;;8.57;4.68;;;;;;;18.72;78.46;100755.25;4940781;29;20115;-60
2022/09/08 09:29:00;;;;;;;9.30;4.55;;;;;;;18.82;77.19;100763.06;4926355;29;20059;-60
2022/09/08 09:31:36;;;;;;;10.27;5.03;;;;;;;18.88;76.02;100766.53;4935393;29;20027;-60
2022/09/08 09:34:10;;;;;;;5.45;4.03;;;;;;;18.99;76.46;100762.88;4936809;29;20024;-60
2022/09/08 09:36:51;;;;;;;8.13;3.55;;;;;;;19.02;73.96;100761.09;4939088;29;20098;-65
2022/09/08 09:39:30;;;;;;;5.95;3.60;;;;;;;19.05;73.99;100760.19;4933959;29;20521;-64
2022/09/08 09:42:01;;;;;;;7.10;3.90;;;;;;;19.11;74.35;100768.88;4945141;28;20038;-64
2022/09/08 09:44:39;;;;;;;11.82;4.20;;;;;;;19.16;74.04;100760.03;4936996;28;20533;-64
2022/09/08 09:47:20;;;;;;;8.65;4.00;;;;;;;19.22;74.47;100759.94;4936394;28;20035;-64
2022/09/08 09:50:16;;;;;;;8.32;3.90;;;;;;;19.33;75.22;100757.16;4932020;29;20035;-64
2022/09/08 09:52:56;;;;;;;9.50;3.22;;;;;;;19.38;72.58;100761.50;4934201;29;20408;-64
2022/09/08 09:55:50;;;;;;;6.18;3.17;;;;;;;19.44;72.80;100756.09;4938560;29;20046;-64
2022/09/08 09:58:47;;;;;;;8.02;3.13;;;;;;;19.47;71.27;100757.84;4934879;29;20082;-64
2022/09/08 10:01:43;;;;;;;5.88;2.83;;;;;;;19.49;72.22;100757.81;4924331;29;20047;-64
2022/09/08 10:04:17;;;;;;;6.47;2.92;;;;;;;19.54;71.91;100756.00;4935158;29;20400;-64
2022/09/08 10:07:04;;;;;;;8.00;3.10;;;;;;;19.52;71.36;100757.75;4933153;29;20161;-64
2022/09/08 10:09:53;;;;;;;7.82;3.00;;;;;;;19.54;70.64;100759.50;4933596;29;20047;-64
2022/09/08 10:12:30;;;;;;;5.85;2.92;;;;;;;19.56;70.18;100759.47;4968553;28;20058;-64
2022/09/08 10:15:03;;;;;;;8.05;3.58;;;;;;;19.56;70.49;100760.34;4972735;28;20121;-66
2022/09/08 10:17:56;;;;;;;10.23;3.20;;;;;;;19.61;71.23;100760.25;4977264;28;20053;-65
2022/09/08 10:20:43;;;;;;;8.98;3.45;;;;;;;19.66;70.17;100762.84;4983163;28;20097;-64
2022/09/08 10:23:30;;;;;;;8.13;3.28;;;;;;;19.72;70.43;100755.69;4976208;28;20081;-64
2022/09/08 10:26:11;;;;;;;7.85;3.17;;;;;;;19.79;70.67;100764.44;4966415;28;20461;-65
2022/09/08 10:28:55;;;;;;;8.27;2.90;;;;;;;19.85;69.52;100755.53;4968850;28;20089;-64
2022/09/08 10:31:53;;;;;;;6.78;3.30;;;;;;;19.87;69.15;100759.91;4978991;28;20197;-64
2022/09/08 10:34:41;;;;;;;9.55;3.17;;;;;;;19.92;69.81;100760.69;4979914;28;20438;-64
2022/09/08 10:37:24;;;;;;;7.63;3.00;;;;;;;19.94;68.46;100766.84;4972843;28;20037;-64
2022/09/08 10:39:52;;;;;;;8.60;3.17;;;;;;;19.98;68.02;100763.22;4966927;28;20033;-66
2022/09/08 10:42:39;;;;;;;9.25;2.83;;;;;;;20.04;69.25;100762.25;4971362;28;20109;-65
2022/09/08 10:45:45;;;;;;;9.27;3.20;;;;;;;20.11;68.17;100757.75;4975725;28;20158;-65
2022/09/08 10:48:32;;;;;;;6.80;3.10;;;;;;;20.19;68.53;100755.84;4977510;28;20514;-65
2022/09/08 10:51:20;;;;;;;10.10;3.50;;;;;;;20.27;68.74;100753.03;4987768;28;20034;-65
2022/09/08 10:54:09;;;;;;;7.68;3.17;;;;;;;20.33;68.58;100748.53;4963378;28;20623;-65
2022/09/08 10:56:35;;;;;;;8.52;3.40;;;;;;;20.45;69.31;100757.13;4964977;28;20031;-65
2022/09/08 10:59:42;;;;;;;8.43;3.10;;;;;;;20.52;68.57;100755.22;4978067;28;20030;-65
2022/09/08 11:02:32;;;;;;;10.85;3.33;;;;;;;20.53;67.50;100755.19;4956306;28;20031;-66
2022/09/08 11:05:41;;;;;;;7.45;3.30;;;;;;;20.54;66.84;100746.38;4986239;28;20031;-65
2022/09/08 11:08:37;;;;;;;6.97;3.05;;;;;;;20.49;66.23;100764.09;4966611;28;20394;-65
2022/09/08 11:11:35;;;;;;;11.55;3.97;;;;;;;20.45;68.44;100751.81;4962972;28;20019;-65
2022/09/08 11:14:19;;;;;;;7.70;3.88;;;;;;;20.51;70.88;100754.38;4954826;28;20144;-65
2022/09/08 11:17:07;;;;;;;5.97;3.10;;;;;;;20.56;69.47;100751.63;4956535;28;20045;-65
2022/09/08 11:19:39;;;;;;;10.30;3.80;;;;;;;20.66;70.89;100753.19;4955314;28;20039;-65
2022/09/08 11:22:29;;;;;;;11.45;3.97;;;;;;;20.80;71.10;100751.19;4959562;28;20030;-65
2022/09/08 11:25:02;;;;;;;8.90;3.63;;;;;;;20.92;69.79;100750.03;4963668;28;20043;-65
2022/09/08 11:27:46;;;;;;;7.90;3.60;;;;;;;20.99;68.41;100749.00;4966853;28;20427;-65
2022/09/08 11:30:19;;;;;;;7.82;3.50;;;;;;;21.01;68.16;100744.56;4956592;28;20023;-65
2022/09/08 11:33:03;;;;;;;8.27;3.75;;;;;;;20.99;67.18;100738.41;4956548;28;20041;-66
2022/09/08 11:35:35;;;;;;;7.65;3.60;;;;;;;20.97;66.99;100734.94;4956389;28;20029;-66
2022/09/08 11:38:23;;;;;;;9.30;3.38;;;;;;;20.94;65.98;100737.66;4959241;28;20038;-66
2022/09/08 11:40:59;;;;;;;7.72;3.80;;;;;;;20.90;66.34;100735.97;4956256;28;20031;-66
2022/09/08 11:43:34;;;;;;;7.45;3.70;;;;;;;20.94;66.70;100735.00;4963667;28;20085;-67
2022/09/08 11:46:20;;;;;;;8.10;3.65;;;;;;;21.04;67.40;100729.50;4965625;28;20031;-65
2022/09/08 11:49:11;;;;;;;9.25;4.15;;;;;;;21.08;64.25;100737.34;4963518;28;20031;-65
2022/09/08 11:52:00;;;;;;;11.23;4.13;;;;;;;21.06;64.94;100727.69;4967875;28;20117;-65
2022/09/08 11:54:48;;;;;;;11.02;3.83;;;;;;;21.03;65.33;100723.34;4968994;28;20069;-64
2022/09/08 11:57:41;;;;;;;8.38;4.40;;;;;;;21.03;64.67;100728.66;4973451;28;20027;-65
2022/09/08 12:00:31;;;;;;;9.35;3.95;;;;;;;21.04;64.49;100721.56;4965805;28;20069;-65
2022/09/08 12:03:13;;;;;;;9.68;3.95;;;;;;;21.10;63.89;100718.75;4966314;28;20080;-65
2022/09/08 12:05:53;;;;;;;9.45;4.00;;;;;;;21.21;64.67;100710.59;4964540;28;20449;-65
2022/09/08 12:08:36;;;;;;;8.02;3.72;;;;;;;21.33;64.03;100705.00;4967976;28;20081;-65
2022/09/08 12:11:36;;;;;;;9.73;3.78;;;;;;;21.42;63.15;100693.31;4967239;28;20039;-65
2022/09/08 12:14:13;;;;;;;8.60;3.85;;;;;;;21.48;62.53;100688.72;4974790;28;20465;-65
2022/09/08 12:17:16;;;;;;;8.68;3.92;;;;;;;21.58;62.37;100684.13;4974156;28;20037;-66
2022/09/08 12:20:01;;;;;;;8.10;3.90;;;;;;;21.66;62.35;100682.13;4986919;28;20046;-64
2022/09/08 12:23:06;;;;;;;8.88;3.70;;;;;;;21.73;62.00;100687.28;4958915;28;20337;-65
2022/09/08 12:26:11;;;;;;;8.35;3.67;;;;;;;21.81;61.27;100693.25;4946118;28;20050;-65
2022/09/08 12:28:48;;;;;;;5.13;2.90;;;;;;;21.78;58.17;100685.38;4948359;28;20110;-65
2022/09/08 12:31:48;;;;;;;6.78;3.10;;;;;;;21.73;58.15;100684.66;4980731;28;20081;-66
2022/09/08 12:34:52;;;;;;;6.93;3.03;;;;;;;21.71;59.59;100693.50;4979295;28;20394;-65
2022/09/08 12:37:35;;;;;;;7.53;2.90;;;;;;;21.67;58.26;100690.97;4971917;28;20026;-65
2022/09/08 12:40:01;;;;;;;4.55;2.63;;;;;;;21.59;58.25;100691.13;4968899;28;20577;-65
2022/09/08 12:42:52;;;;;;;6.03;2.60;;;;;;;21.53;56.77;100683.34;4964851;28;20030;-65
2022/09/08 12:45:30;;;;;;;6.85;2.40;;;;;;;21.43;58.04;100689.75;4961825;28;20047;-65
2022/09/08 12:48:13;;;;;;;5.80;2.70;;;;;;;21.40;59.02;100684.53;4963182;28;20027;-65
2022/09/08 12:51:16;;;;;;;10.00;2.95;;;;;;;21.44;60.35;100675.59;4969921;28;20026;-65
2022/09/08 12:53:56;;;;;;;5.15;2.55;;;;;;;21.52;60.07;100679.84;4966605;28;20027;-65
2022/09/08 12:56:47;;;;;;;6.28;2.72;;;;;;;21.55;58.55;100686.81;4960594;28;20061;-62
2022/09/08 12:59:22;;;;;;;7.57;2.88;;;;;;;21.59;59.13;100695.59;4959784;28;20345;-62
2022/09/08 13:02:27;;;;;;;7.25;2.70;;;;;;;21.63;59.29;100687.50;4966465;28;20041;-62
2022/09/08 13:05:20;;;;;;;7.65;3.20;;;;;;;21.74;59.70;100686.38;4959365;28;20474;-61
2022/09/08 13:07:52;;;;;;;7.45;2.97;;;;;;;21.78;56.04;100690.69;4956410;28;20165;-62
2022/09/08 13:10:30;;;;;;;6.68;2.45;;;;;;;21.80;55.85;100686.22;4962417;28;20031;-62
2022/09/08 13:13:20;;;;;;;6.80;2.70;;;;;;;21.82;56.37;100685.25;4961422;28;20043;-62
2022/09/08 13:16:00;;;;;;;9.70;2.80;;;;;;;21.83;56.56;100683.50;4964073;28;20049;-62
2022/09/08 13:18:44;;;;;;;6.45;2.70;;;;;;;21.87;57.70;100687.81;4964139;28;20030;-62
2022/09/08 13:21:14;;;;;;;8.90;2.72;;;;;;;21.89;57.18;100676.22;4960753;28;20497;-62
2022/09/08 13:23:53;;;;;;;8.82;3.00;;;;;;;22.00;57.32;100683.03;4960680;28;20034;-62
2022/09/08 13:26:36;;;;;;;6.13;2.83;;;;;;;22.03;56.70;100686.50;4963226;28;20110;-66
2022/09/08 13:29:34;;;;;;;8.85;3.10;;;;;;;22.02;56.77;100687.41;4943500;28;20126;-66
2022/09/08 13:32:23;;;;;;;9.18;3.45;;;;;;;21.98;56.61;100680.41;4934387;28;20045;-66
2022/09/08 13:35:16;;;;;;;9.25;3.30;;;;;;;21.90;56.06;100693.03;4961056;28;20065;-66
2022/09/08 13:37:59;;;;;;;7.13;3.38;;;;;;;21.84;56.01;100694.06;4958356;28;20030;-66